Time;durP1;ratioP1;P1;durP2;ratioP2;P2;SDS_P1;SDS_P2;PMS_P1;PMS_P2;Temp;Humidity;BMP_temperature;BMP_pressure;BME280_temperature;BME280_humidity;BME280_pressure;Samples;Min_cycle;Max_cycle;Signal;HPM_P1;HPM_P2
2023/12/17 00:02:01;;;;;;;6.32;1.65;;;9.70;99.90;;;;;;5047542;28;20041;-76
2023/12/17 00:04:26;;;;;;;7.35;2.03;;;9.70;99.90;;;;;;5031729;28;20491;-77
2023/12/17 00:06:52;;;;;;;4.30;2.13;;;9.70;99.90;;;;;;5047504;28;20175;-77
2023/12/17 00:09:18;;;;;;;3.25;1.52;;;9.70;99.90;;;;;;5040973;28;20063;-76
2023/12/17 00:11:44;;;;;;;3.42;2.10;;;9.70;99.90;;;;;;5048465;28;20073;-77
2023/12/17 00:14:13;;;;;;;5.00;1.38;;;9.70;99.90;;;;;;5044445;28;20458;-76
2023/12/17 00:16:39;;;;;;;6.53;2.10;;;9.70;99.90;;;;;;5047938;28;20040;-76
2023/12/17 00:19:05;;;;;;;10.23;1.67;;;9.70;99.90;;;;;;5020486;28;20037;-76
2023/12/17 00:21:32;;;;;;;3.35;2.08;;;9.70;99.90;;;;;;5047062;28;20052;-76
2023/12/17 00:23:58;;;;;;;5.53;1.70;;;9.70;99.90;;;;;;5052547;28;20477;-78
2023/12/17 00:26:23;;;;;;;5.07;1.55;;;9.70;99.90;;;;;;5048195;28;20127;-77
2023/12/17 00:28:49;;;;;;;4.00;1.60;;;9.70;99.90;;;;;;5044599;28;20151;-77
2023/12/17 00:31:15;;;;;;;6.03;1.80;;;9.80;99.90;;;;;;5042530;28;20112;-77
2023/12/17 00:33:41;;;;;;;6.03;1.88;;;9.80;99.90;;;;;;5059316;28;20512;-77
2023/12/17 00:36:07;;;;;;;2.78;1.45;;;9.80;99.90;;;;;;5040423;28;20041;-76
2023/12/17 00:38:33;;;;;;;4.15;2.00;;;9.80;99.90;;;;;;5060059;28;20057;-76
2023/12/17 00:40:59;;;;;;;3.58;1.48;;;9.70;99.90;;;;;;5044101;28;20059;-75
2023/12/17 00:43:24;;;;;;;4.07;2.10;;;9.80;99.90;;;;;;5043914;28;20421;-76
2023/12/17 00:45:50;;;;;;;5.35;1.75;;;9.70;99.90;;;;;;5026833;28;20442;-76
2023/12/17 00:48:16;;;;;;;4.78;1.55;;;9.70;99.90;;;;;;5052736;28;20088;-76
2023/12/17 00:50:42;;;;;;;5.38;1.77;;;9.70;99.90;;;;;;5037207;28;20042;-76
2023/12/17 00:53:07;;;;;;;8.38;2.05;;;9.70;99.90;;;;;;5052663;28;20045;-76
2023/12/17 00:55:34;;;;;;;5.95;1.98;;;9.70;99.90;;;;;;5046347;28;20836;-79
2023/12/17 00:57:59;;;;;;;3.53;1.65;;;9.70;99.90;;;;;;5047708;28;20064;-77
2023/12/17 01:00:25;;;;;;;3.20;1.63;;;9.70;99.90;;;;;;5039211;28;20037;-76
2023/12/17 01:02:51;;;;;;;6.28;1.35;;;9.70;99.90;;;;;;5044152;28;20405;-76
2023/12/17 01:05:17;;;;;;;2.47;1.58;;;9.70;99.90;;;;;;5027596;28;20473;-76
2023/12/17 01:07:42;;;;;;;3.03;1.38;;;9.70;99.90;;;;;;5044414;28;20570;-77
2023/12/17 01:10:08;;;;;;;5.13;1.48;;;9.70;99.90;;;;;;5050712;28;20041;-77
2023/12/17 01:12:34;;;;;;;8.23;1.73;;;9.70;99.90;;;;;;5041338;28;20064;-77
2023/12/17 01:15:00;;;;;;;2.63;1.83;;;9.70;99.90;;;;;;5041331;28;20503;-76
2023/12/17 01:17:25;;;;;;;3.92;1.83;;;9.70;99.90;;;;;;5054577;28;20791;-77
2023/12/17 01:19:52;;;;;;;4.88;1.80;;;9.70;99.90;;;;;;5047272;28;20048;-77
2023/12/17 01:22:17;;;;;;;3.58;2.05;;;9.70;99.90;;;;;;5046136;28;20032;-76
2023/12/17 01:24:43;;;;;;;7.88;2.35;;;9.70;99.90;;;;;;5046144;28;20087;-76
2023/12/17 01:27:09;;;;;;;3.03;1.55;;;9.70;99.90;;;;;;5046269;28;20099;-76
2023/12/17 01:29:35;;;;;;;6.35;1.52;;;9.70;99.90;;;;;;5027420;28;20518;-76
2023/12/17 01:32:00;;;;;;;4.10;1.73;;;9.70;99.90;;;;;;5027335;28;20036;-77
2023/12/17 01:34:26;;;;;;;3.58;1.52;;;9.70;99.90;;;;;;5060429;28;20072;-77
2023/12/17 01:36:52;;;;;;;13.88;2.08;;;9.70;99.90;;;;;;5046667;28;20045;-77
2023/12/17 01:39:18;;;;;;;6.60;2.58;;;9.70;99.90;;;;;;5043843;28;20521;-77
2023/12/17 01:41:46;;;;;;;4.07;2.10;;;9.70;99.90;;;;;;5041305;28;20052;-78
2023/12/17 01:44:12;;;;;;;3.40;1.55;;;9.60;99.90;;;;;;5025689;28;20439;-77
2023/12/17 01:46:39;;;;;;;4.38;1.80;;;9.60;99.90;;;;;;5046763;28;20084;-77
2023/12/17 01:49:06;;;;;;;6.35;2.05;;;9.60;99.90;;;;;;5046274;28;20377;-76
2023/12/17 01:51:32;;;;;;;2.97;1.55;;;9.60;99.90;;;;;;5042316;28;20124;-77
2023/12/17 01:53:59;;;;;;;2.92;1.58;;;9.60;99.90;;;;;;5041488;28;20473;-77
2023/12/17 01:56:25;;;;;;;2.92;1.33;;;9.50;99.90;;;;;;5025344;28;20036;-77
2023/12/17 01:58:52;;;;;;;5.43;1.88;;;9.50;99.90;;;;;;5045714;28;20503;-77
2023/12/17 02:01:18;;;;;;;5.40;2.03;;;9.50;99.90;;;;;;5029539;28;20665;-77
2023/12/17 02:03:44;;;;;;;4.53;2.17;;;9.50;99.90;;;;;;5025078;28;20062;-77
2023/12/17 02:06:10;;;;;;;3.42;2.05;;;9.50;99.90;;;;;;5023320;28;20033;-77
2023/12/17 02:08:36;;;;;;;14.70;2.53;;;9.40;99.90;;;;;;5056846;28;20392;-77
2023/12/17 02:11:02;;;;;;;5.03;2.33;;;9.40;99.90;;;;;;5027777;28;20040;-76
2023/12/17 02:13:28;;;;;;;11.73;2.00;;;9.30;99.90;;;;;;5016075;28;20720;-77
2023/12/17 02:15:54;;;;;;;5.38;2.65;;;9.30;99.90;;;;;;5031363;28;20040;-77
2023/12/17 02:18:19;;;;;;;5.55;2.55;;;9.30;99.90;;;;;;5009310;28;20512;-77
2023/12/17 02:20:45;;;;;;;2.80;1.67;;;9.30;99.90;;;;;;5030104;28;20037;-78
2023/12/17 02:23:11;;;;;;;4.05;2.45;;;9.20;99.90;;;;;;5029218;28;20213;-78
2023/12/17 02:25:37;;;;;;;4.57;2.25;;;9.20;99.90;;;;;;5034884;28;20073;-77
2023/12/17 02:28:03;;;;;;;7.30;1.95;;;9.20;99.90;;;;;;5013161;28;20052;-77
2023/12/17 02:30:29;;;;;;;5.28;2.50;;;9.20;99.90;;;;;;5018129;28;20042;-76
2023/12/17 02:32:55;;;;;;;4.13;1.70;;;9.20;99.90;;;;;;5038630;28;20048;-77
2023/12/17 02:35:23;;;;;;;5.47;2.15;;;9.30;99.90;;;;;;5030581;28;20041;-77
2023/12/17 02:37:55;;;;;;;5.85;2.67;;;9.30;99.90;;;;;;5030300;28;20072;-77
2023/12/17 02:40:21;;;;;;;6.03;2.85;;;9.30;99.90;;;;;;5006224;28;20132;-77
2023/12/17 02:42:46;;;;;;;6.60;2.50;;;9.40;99.90;;;;;;5034958;28;20475;-77
2023/12/17 02:45:13;;;;;;;4.93;1.83;;;9.40;99.90;;;;;;5030863;28;20044;-77
2023/12/17 02:47:39;;;;;;;6.10;2.15;;;9.40;99.90;;;;;;5034448;28;20128;-76
2023/12/17 02:50:05;;;;;;;6.03;2.67;;;9.40;99.90;;;;;;5030068;28;20041;-76
2023/12/17 02:52:31;;;;;;;6.65;2.25;;;9.40;99.90;;;;;;5029765;28;20033;-76
2023/12/17 02:54:57;;;;;;;8.05;2.92;;;9.40;99.90;;;;;;5017302;28;20124;-77
2023/12/17 02:57:25;;;;;;;13.00;2.83;;;9.50;99.90;;;;;;5029767;28;20052;-77
2023/12/17 02:59:54;;;;;;;6.10;2.25;;;9.50;99.90;;;;;;5026832;28;20044;-76
2023/12/17 03:02:20;;;;;;;3.90;2.05;;;9.50;99.90;;;;;;5037700;28;20040;-77
2023/12/17 03:04:46;;;;;;;6.60;2.22;;;9.50;99.90;;;;;;5009708;28;23431;-77
2023/12/17 03:07:12;;;;;;;4.93;2.03;;;9.50;99.90;;;;;;5030138;28;20121;-77
2023/12/17 03:09:38;;;;;;;10.13;2.00;;;9.60;99.90;;;;;;5029729;28;20573;-77
2023/12/17 03:12:04;;;;;;;7.32;1.95;;;9.60;99.90;;;;;;5029979;28;20124;-77
2023/12/17 03:14:33;;;;;;;6.35;2.08;;;9.60;99.90;;;;;;5029097;28;20092;-76
2023/12/17 03:17:11;;;;;;;2.28;1.63;;;9.60;99.90;;;;;;5029544;28;20124;-77
2023/12/17 03:19:37;;;;;;;5.65;2.10;;;9.60;99.90;;;;;;5025651;28;20429;-77
2023/12/17 03:22:03;;;;;;;5.45;1.83;;;9.60;99.90;;;;;;5025323;28;20047;-77
2023/12/17 03:24:29;;;;;;;8.15;2.67;;;9.60;99.90;;;;;;5025447;28;20034;-76
2023/12/17 03:26:54;;;;;;;3.55;2.25;;;9.60;99.90;;;;;;5013048;28;20111;-77
2023/12/17 03:29:20;;;;;;;2.38;1.33;;;9.60;99.90;;;;;;5029364;28;20033;-77
2023/12/17 03:31:46;;;;;;;3.35;1.92;;;9.60;99.90;;;;;;5012941;28;20112;-77
2023/12/17 03:34:12;;;;;;;3.83;1.77;;;9.60;99.90;;;;;;5031730;28;20140;-77
2023/12/17 03:36:38;;;;;;;4.57;1.98;;;9.60;99.90;;;;;;5029556;28;20042;-76
2023/12/17 03:39:04;;;;;;;7.95;2.00;;;9.60;99.90;;;;;;5027885;28;20045;-76
2023/12/17 03:41:30;;;;;;;5.70;2.13;;;9.70;99.90;;;;;;5015826;28;20089;-76
2023/12/17 03:43:57;;;;;;;3.47;1.90;;;9.60;99.90;;;;;;5037727;28;20069;-77
2023/12/17 03:46:25;;;;;;;6.97;2.22;;;9.60;99.90;;;;;;5030613;28;20041;-77
2023/12/17 03:48:51;;;;;;;6.25;0.98;;;9.70;99.90;;;;;;5017559;28;20522;-77
2023/12/17 03:51:17;;;;;;;5.47;1.52;;;9.60;99.90;;;;;;5025355;28;20033;-77
2023/12/17 03:53:43;;;;;;;4.68;2.13;;;9.60;99.90;;;;;;5033351;28;20482;-77
2023/12/17 03:56:10;;;;;;;5.28;1.90;;;9.70;99.90;;;;;;5031744;28;20059;-76
2023/12/17 03:58:39;;;;;;;5.60;1.73;;;9.60;99.90;;;;;;5010767;28;20050;-76
2023/12/17 04:01:07;;;;;;;6.43;1.90;;;9.70;99.90;;;;;;5028779;28;20045;-76
2023/12/17 04:03:33;;;;;;;4.57;1.65;;;9.70;99.90;;;;;;5033040;28;20050;-76
2023/12/17 04:06:02;;;;;;;9.32;2.25;;;9.70;99.90;;;;;;5033092;28;20098;-77
2023/12/17 04:08:28;;;;;;;3.33;1.90;;;9.60;99.90;;;;;;5028377;28;20041;-76
2023/12/17 04:10:54;;;;;;;3.70;2.20;;;9.60;99.90;;;;;;5036710;28;20276;-76
2023/12/17 04:13:20;;;;;;;6.43;2.40;;;9.60;99.90;;;;;;5036103;28;20215;-76
2023/12/17 04:15:45;;;;;;;6.78;2.30;;;9.60;99.90;;;;;;5032859;28;20120;-77
2023/12/17 04:18:11;;;;;;;3.33;1.40;;;9.60;99.90;;;;;;5028484;28;20045;-77
2023/12/17 04:20:37;;;;;;;7.15;2.30;;;9.60;99.90;;;;;;5036665;28;20080;-77
2023/12/17 04:23:04;;;;;;;3.95;2.28;;;9.60;99.90;;;;;;5032906;28;20052;-77
2023/12/17 04:25:29;;;;;;;4.32;2.28;;;9.60;99.90;;;;;;5033054;28;20038;-76
2023/12/17 04:28:26;;;;;;;2.70;1.50;;;9.60;99.90;;;;;;5032472;28;20052;-77
2023/12/17 04:30:52;;;;;;;5.85;1.92;;;9.60;99.90;;;;;;5011279;28;20033;-76
2023/12/17 04:33:18;;;;;;;8.32;2.45;;;9.60;99.90;;;;;;5032310;28;20496;-76
2023/12/17 04:35:44;;;;;;;7.90;2.20;;;9.60;99.90;;;;;;5028310;28;20469;-78
2023/12/17 04:38:09;;;;;;;9.18;2.85;;;9.60;99.90;;;;;;5024600;28;20060;-76
2023/12/17 04:40:35;;;;;;;6.93;2.63;;;9.60;99.90;;;;;;5023183;28;20053;-77
2023/12/17 04:43:01;;;;;;;4.15;1.92;;;9.60;99.90;;;;;;5044635;28;20053;-77
2023/12/17 04:45:27;;;;;;;6.32;2.70;;;9.60;99.90;;;;;;5060121;28;20056;-76
2023/12/17 04:47:53;;;;;;;8.90;2.13;;;9.60;99.90;;;;;;5052462;28;20112;-78
2023/12/17 04:50:18;;;;;;;6.03;2.88;;;9.60;99.90;;;;;;5045876;28;20393;-76
2023/12/17 04:52:44;;;;;;;4.18;2.85;;;9.50;99.90;;;;;;5052085;28;20553;-77
2023/12/17 04:55:10;;;;;;;7.20;2.55;;;9.50;99.90;;;;;;5056908;28;20047;-76
2023/12/17 04:57:36;;;;;;;5.97;2.58;;;9.50;99.90;;;;;;5052406;28;20045;-75
2023/12/17 05:00:03;;;;;;;10.02;3.08;;;9.50;99.90;;;;;;5048241;28;20553;-77
2023/12/17 05:02:29;;;;;;;6.68;2.80;;;9.50;99.90;;;;;;5052232;28;20028;-78
2023/12/17 05:04:55;;;;;;;4.32;2.42;;;9.40;99.90;;;;;;5051639;28;20043;-76
2023/12/17 05:07:21;;;;;;;3.88;2.38;;;9.50;99.90;;;;;;5056622;28;20044;-77
2023/12/17 05:09:46;;;;;;;6.43;2.60;;;9.40;99.90;;;;;;5051746;28;20045;-74
2023/12/17 05:12:12;;;;;;;6.55;1.73;;;9.50;99.90;;;;;;5051766;28;20037;-76
2023/12/17 05:14:38;;;;;;;3.83;2.08;;;9.40;99.90;;;;;;5051982;28;20055;-74
2023/12/17 05:17:04;;;;;;;3.60;2.03;;;9.40;99.90;;;;;;5051250;28;20068;-76
2023/12/17 05:19:29;;;;;;;4.05;2.25;;;9.40;99.90;;;;;;5030449;28;20049;-77
2023/12/17 05:21:58;;;;;;;3.80;2.03;;;9.40;99.90;;;;;;5051236;28;20067;-76
2023/12/17 05:24:24;;;;;;;4.78;1.65;;;9.40;99.90;;;;;;5051762;28;20053;-75
2023/12/17 05:26:50;;;;;;;5.78;2.28;;;9.40;99.90;;;;;;5051971;28;20051;-78
2023/12/17 05:29:16;;;;;;;4.07;2.67;;;9.40;99.90;;;;;;5050862;28;20432;-76
2023/12/17 05:31:41;;;;;;;5.18;2.13;;;9.40;99.90;;;;;;5049650;28;20044;-76
2023/12/17 05:34:08;;;;;;;6.85;1.88;;;9.40;99.90;;;;;;5051411;28;20045;-77
2023/12/17 05:36:35;;;;;;;3.65;2.10;;;9.40;99.90;;;;;;5030828;28;20421;-75
2023/12/17 05:39:01;;;;;;;3.75;1.70;;;9.40;99.90;;;;;;5041089;28;20037;-76
2023/12/17 05:41:27;;;;;;;4.95;1.75;;;9.50;99.90;;;;;;5027249;28;20061;-76
2023/12/17 05:43:53;;;;;;;4.10;1.80;;;9.40;99.90;;;;;;5029638;28;20041;-76
2023/12/17 05:46:19;;;;;;;4.13;1.85;;;9.40;99.90;;;;;;5024451;28;20459;-77
2023/12/17 05:48:47;;;;;;;4.88;1.52;;;9.40;99.90;;;;;;5026728;28;20033;-76
2023/12/17 05:51:13;;;;;;;5.82;1.00;;;9.40;99.90;;;;;;5030279;28;20064;-76
2023/12/17 05:53:39;;;;;;;5.40;1.67;;;9.40;99.90;;;;;;5031060;28;20041;-76
2023/12/17 05:56:05;;;;;;;3.42;1.95;;;9.40;99.90;;;;;;5030370;28;20041;-76
2023/12/17 05:58:31;;;;;;;7.05;2.25;;;9.40;99.90;;;;;;5031202;28;20046;-76
2023/12/17 06:00:57;;;;;;;4.40;1.92;;;9.40;99.90;;;;;;5014133;28;20049;-76
2023/12/17 06:03:23;;;;;;;5.53;1.80;;;9.40;99.90;;;;;;5030611;28;20132;-76
2023/12/17 06:05:48;;;;;;;4.00;1.77;;;9.40;99.90;;;;;;5030504;28;20041;-76
2023/12/17 06:08:14;;;;;;;5.32;1.88;;;9.40;99.90;;;;;;5029309;28;20033;-76
2023/12/17 06:10:40;;;;;;;4.22;1.50;;;9.40;99.90;;;;;;5029996;28;20049;-76
2023/12/17 06:13:06;;;;;;;7.22;1.60;;;9.40;99.90;;;;;;5030109;28;20052;-76
2023/12/17 06:15:32;;;;;;;3.15;0.98;;;9.40;99.90;;;;;;5023405;28;20049;-76
2023/12/17 06:17:57;;;;;;;5.93;1.45;;;9.40;99.90;;;;;;5021857;28;20065;-75
2023/12/17 06:20:25;;;;;;;4.18;1.25;;;9.40;99.90;;;;;;5010684;28;20493;-77
2023/12/17 06:22:52;;;;;;;4.45;1.77;;;9.40;99.90;;;;;;5026513;28;20542;-76
2023/12/17 06:25:18;;;;;;;3.55;1.27;;;9.40;99.90;;;;;;5030710;28;20033;-76
2023/12/17 06:27:43;;;;;;;6.63;1.58;;;9.40;99.90;;;;;;5035144;28;20045;-76
2023/12/17 06:30:09;;;;;;;2.78;1.33;;;9.40;99.90;;;;;;5014797;28;20477;-75
2023/12/17 06:32:35;;;;;;;3.95;1.67;;;9.40;99.90;;;;;;5012383;28;20049;-76
2023/12/17 06:35:01;;;;;;;7.50;1.35;;;9.40;99.90;;;;;;5029985;28;20421;-77
2023/12/17 06:37:27;;;;;;;3.85;1.45;;;9.40;99.90;;;;;;5016790;28;20139;-77
2023/12/17 06:39:52;;;;;;;4.30;1.38;;;9.40;99.90;;;;;;5032721;28;20053;-76
2023/12/17 06:42:18;;;;;;;3.45;1.50;;;9.40;99.90;;;;;;5055575;28;20044;-76
2023/12/17 06:44:44;;;;;;;2.03;1.25;;;9.40;99.90;;;;;;5049257;28;20059;-76
2023/12/17 06:47:10;;;;;;;1.90;1.02;;;9.40;99.90;;;;;;5053564;28;20060;-76
2023/12/17 06:49:39;;;;;;;7.25;1.30;;;9.40;99.90;;;;;;5052856;28;20048;-76
2023/12/17 06:52:05;;;;;;;12.20;2.30;;;9.40;99.90;;;;;;5053292;28;20495;-77
2023/12/17 06:54:30;;;;;;;5.95;1.50;;;9.40;99.90;;;;;;5057166;28;20119;-76
2023/12/17 06:56:56;;;;;;;5.28;1.63;;;9.40;99.90;;;;;;5053714;28;20127;-75
2023/12/17 06:59:22;;;;;;;2.25;1.50;;;9.40;99.90;;;;;;5051631;28;20088;-76
2023/12/17 07:01:48;;;;;;;5.80;1.70;;;9.40;99.90;;;;;;5044863;28;20044;-76
2023/12/17 07:04:13;;;;;;;4.78;1.65;;;9.40;99.90;;;;;;5055820;28;20040;-76
2023/12/17 07:06:39;;;;;;;4.78;1.73;;;9.40;99.90;;;;;;5049580;28;20374;-76
2023/12/17 07:09:06;;;;;;;8.30;2.42;;;9.30;99.90;;;;;;5052385;28;20040;-77
2023/12/17 07:11:31;;;;;;;2.35;1.70;;;9.30;99.90;;;;;;5032362;28;20055;-76
2023/12/17 07:13:57;;;;;;;2.55;1.23;;;9.30;99.90;;;;;;5053134;28;20036;-76
2023/12/17 07:16:25;;;;;;;2.78;1.70;;;9.30;99.90;;;;;;5036622;28;20181;-76
2023/12/17 07:18:51;;;;;;;4.70;2.17;;;9.30;99.90;;;;;;5032425;28;20045;-76
2023/12/17 07:21:17;;;;;;;7.82;2.47;;;9.30;99.90;;;;;;5053199;28;20393;-76
2023/12/17 07:23:43;;;;;;;12.70;2.20;;;9.30;99.90;;;;;;5052651;28;20488;-76
2023/12/17 07:26:09;;;;;;;5.70;2.40;;;9.30;99.90;;;;;;5036135;28;20040;-76
2023/12/17 07:28:35;;;;;;;3.38;2.20;;;9.30;99.90;;;;;;5052934;28;20028;-76
2023/12/17 07:31:01;;;;;;;6.38;2.63;;;9.30;99.90;;;;;;5051362;28;20064;-76
2023/12/17 07:33:27;;;;;;;8.95;2.28;;;9.30;99.90;;;;;;5051428;28;20067;-78
2023/12/17 07:35:53;;;;;;;4.05;2.13;;;9.20;99.90;;;;;;5028209;28;20048;-76
2023/12/17 07:38:19;;;;;;;5.28;2.80;;;9.30;99.90;;;;;;5048753;28;20048;-76
2023/12/17 07:40:45;;;;;;;3.63;2.40;;;9.30;99.90;;;;;;5034233;28;20131;-74
2023/12/17 07:43:10;;;;;;;6.13;3.05;;;9.30;99.90;;;;;;5057360;28;20173;-76
2023/12/17 07:45:36;;;;;;;3.53;2.30;;;9.30;99.90;;;;;;5048465;28;20047;-72
2023/12/17 07:48:03;;;;;;;7.95;2.55;;;9.30;99.90;;;;;;5051944;28;20536;-72
2023/12/17 07:50:29;;;;;;;10.10;3.95;;;9.20;99.90;;;;;;5048428;28;20033;-73
2023/12/17 07:52:55;;;;;;;6.10;3.22;;;9.20;99.90;;;;;;5052821;28;20384;-71
2023/12/17 07:55:22;;;;;;;13.35;3.83;;;9.20;99.90;;;;;;5035443;28;20064;-73
2023/12/17 07:57:48;;;;;;;10.80;4.10;;;9.30;99.90;;;;;;5052663;28;20033;-71
2023/12/17 08:00:14;;;;;;;10.68;3.15;;;9.30;99.90;;;;;;5043545;28;20379;-72
2023/12/17 08:02:40;;;;;;;9.43;3.92;;;9.20;99.90;;;;;;5031675;28;20488;-72
2023/12/17 08:05:07;;;;;;;7.25;3.50;;;9.30;99.90;;;;;;5048485;28;20118;-72
2023/12/17 08:07:33;;;;;;;19.92;4.78;;;9.20;99.90;;;;;;5044420;28;20431;-73
2023/12/17 08:09:59;;;;;;;9.02;4.57;;;9.20;99.90;;;;;;5041886;28;20045;-72
2023/12/17 08:12:25;;;;;;;9.27;4.75;;;9.30;99.90;;;;;;5034943;28;20115;-72
2023/12/17 08:14:50;;;;;;;13.05;4.57;;;9.30;99.90;;;;;;5035734;28;20040;-71
2023/12/17 08:17:16;;;;;;;10.57;4.85;;;9.30;99.90;;;;;;5035180;28;20044;-72
2023/12/17 08:19:42;;;;;;;15.13;4.55;;;9.30;99.90;;;;;;5031806;28;20047;-72
2023/12/17 08:22:09;;;;;;;9.57;4.60;;;9.30;99.90;;;;;;5051546;28;20083;-73
2023/12/17 08:24:35;;;;;;;10.88;4.82;;;9.30;99.90;;;;;;5037531;28;20080;-73
2023/12/17 08:27:02;;;;;;;10.93;5.10;;;9.30;99.90;;;;;;5052805;28;20064;-74
2023/12/17 08:29:29;;;;;;;13.50;5.60;;;9.30;99.90;;;;;;5054288;28;20043;-72
2023/12/17 08:31:57;;;;;;;13.95;6.20;;;9.30;99.90;;;;;;5051151;28;20388;-72
2023/12/17 08:34:29;;;;;;;11.35;6.25;;;9.30;99.90;;;;;;5053411;28;20062;-73
2023/12/17 08:36:56;;;;;;;10.35;5.22;;;9.30;99.90;;;;;;5072022;28;20047;-73
2023/12/17 08:39:23;;;;;;;14.52;5.90;;;9.40;99.90;;;;;;5032317;28;20120;-72
2023/12/17 08:41:50;;;;;;;10.20;4.65;;;9.40;99.90;;;;;;5054058;28;20062;-73
2023/12/17 08:44:20;;;;;;;8.70;4.47;;;9.40;99.90;;;;;;5038484;28;20393;-71
2023/12/17 08:46:46;;;;;;;;;;;9.40;99.90;;;;;;5047375;28;20090;-73
2023/12/17 08:49:11;;;;;;;8.88;4.47;;;9.40;99.90;;;;;;5051108;28;19922;-73
2023/12/17 08:51:38;;;;;;;9.45;4.63;;;9.40;99.90;;;;;;5054926;28;20036;-72
2023/12/17 08:54:04;;;;;;;15.70;4.72;;;9.40;99.90;;;;;;5054537;28;20044;-72
2023/12/17 08:56:30;;;;;;;11.73;5.13;;;9.50;99.90;;;;;;5051061;28;20044;-71
2023/12/17 08:58:55;;;;;;;13.93;4.65;;;9.50;99.90;;;;;;5029669;28;20056;-72
2023/12/17 09:01:21;;;;;;;12.30;4.55;;;9.50;99.90;;;;;;5054727;28;20036;-70
2023/12/17 09:03:47;;;;;;;10.55;4.20;;;9.50;99.90;;;;;;5049974;28;20128;-72
2023/12/17 09:06:13;;;;;;;10.30;4.93;;;9.50;99.90;;;;;;5050427;28;20036;-72
2023/12/17 09:08:38;;;;;;;9.35;4.85;;;9.50;99.90;;;;;;5063388;28;20040;-73
2023/12/17 09:11:04;;;;;;;6.22;4.07;;;9.60;99.90;;;;;;5062597;28;20029;-70
2023/12/17 09:13:30;;;;;;;7.25;4.13;;;9.60;99.90;;;;;;5034257;28;20105;-73
2023/12/17 09:15:56;;;;;;;10.82;4.75;;;9.60;99.90;;;;;;5053582;28;20152;-71
2023/12/17 09:18:22;;;;;;;9.52;4.18;;;9.60;99.90;;;;;;5034121;28;20079;-73
2023/12/17 09:20:47;;;;;;;9.73;4.43;;;9.60;99.90;;;;;;5037744;28;20162;-73
2023/12/17 09:23:13;;;;;;;12.80;4.25;;;9.60;99.90;;;;;;5050168;28;20539;-70
2023/12/17 09:25:39;;;;;;;12.73;4.68;;;9.60;99.90;;;;;;5045908;28;20040;-73
2023/12/17 09:28:05;;;;;;;9.85;4.13;;;9.60;99.90;;;;;;5054307;28;20040;-72
2023/12/17 09:30:30;;;;;;;16.95;4.38;;;9.60;99.90;;;;;;5049585;28;20060;-71
2023/12/17 09:32:56;;;;;;;7.82;3.75;;;9.60;99.90;;;;;;5051160;28;20036;-72
2023/12/17 09:35:22;;;;;;;12.88;4.07;;;9.60;99.90;;;;;;5054380;28;20043;-73
2023/12/17 09:37:48;;;;;;;8.70;4.32;;;9.60;99.90;;;;;;5029350;28;20652;-73
2023/12/17 09:40:15;;;;;;;8.30;4.45;;;9.60;99.90;;;;;;5053266;28;20052;-77
2023/12/17 09:42:43;;;;;;;12.88;5.38;;;9.60;99.90;;;;;;5054041;28;20115;-73
2023/12/17 09:45:14;;;;;;;8.30;4.50;;;9.60;99.90;;;;;;5033292;28;20068;-71
2023/12/17 09:47:41;;;;;;;19.50;6.13;;;9.60;99.90;;;;;;5050162;28;20369;-73
2023/12/17 09:50:09;;;;;;;10.85;4.95;;;9.60;99.90;;;;;;5053875;28;23609;-72
2023/12/17 09:52:42;;;;;;;16.42;6.95;;;9.60;99.90;;;;;;5053973;28;20528;-73
2023/12/17 09:55:10;;;;;;;12.77;6.43;;;9.60;99.90;;;;;;5053698;28;20500;-72
2023/12/17 09:57:36;;;;;;;16.17;6.50;;;9.60;99.90;;;;;;5034586;28;20048;-72
2023/12/17 10:00:03;;;;;;;14.35;6.38;;;9.60;99.90;;;;;;5045479;28;20043;-73
2023/12/17 10:02:28;;;;;;;18.55;7.60;;;9.60;99.90;;;;;;5048643;28;20040;-71
2023/12/17 10:04:54;;;;;;;16.73;6.32;;;9.60;99.90;;;;;;5049530;28;20128;-72
2023/12/17 10:07:20;;;;;;;16.67;7.75;;;9.60;99.90;;;;;;5033604;28;20037;-72
2023/12/17 10:09:46;;;;;;;14.65;6.68;;;9.60;99.90;;;;;;5037413;28;20039;-72
2023/12/17 10:12:14;;;;;;;16.00;8.40;;;9.60;99.90;;;;;;5053501;28;20028;-71
2023/12/17 10:14:40;;;;;;;16.35;7.05;;;9.60;99.90;;;;;;5036920;28;20040;-73
2023/12/17 10:17:06;;;;;;;25.15;7.38;;;9.60;99.90;;;;;;5057526;28;20089;-71
2023/12/17 10:19:32;;;;;;;14.27;6.07;;;9.60;99.90;;;;;;5061626;28;20174;-74
2023/12/17 10:22:06;;;;;;;14.32;7.95;;;9.60;99.90;;;;;;5049352;28;20032;-73
2023/12/17 10:24:36;;;;;;;26.50;8.18;;;9.60;99.90;;;;;;5036963;28;20041;-75
2023/12/17 10:27:13;;;;;;;18.25;7.35;;;9.60;99.90;;;;;;5053603;28;20123;-74
2023/12/17 10:29:39;;;;;;;14.80;7.25;;;9.60;99.90;;;;;;5052655;28;20362;-75
2023/12/17 10:32:06;;;;;;;14.27;6.80;;;9.60;99.90;;;;;;5051398;28;20111;-75
2023/12/17 10:34:32;;;;;;;16.70;8.02;;;9.70;99.90;;;;;;5050298;28;20093;-72
2023/12/17 10:36:57;;;;;;;13.68;5.65;;;9.60;99.90;;;;;;5053662;28;20477;-72
2023/12/17 10:39:23;;;;;;;17.02;7.60;;;9.70;99.90;;;;;;5048251;28;20186;-75
2023/12/17 10:41:53;;;;;;;11.30;5.68;;;9.60;99.90;;;;;;5056202;28;20441;-74
2023/12/17 10:44:21;;;;;;;13.77;5.68;;;9.60;99.90;;;;;;5048507;28;20393;-74
2023/12/17 10:46:48;;;;;;;17.23;7.57;;;9.60;99.90;;;;;;5049549;28;20032;-74
2023/12/17 10:49:15;;;;;;;12.18;5.90;;;9.60;99.90;;;;;;5053490;28;20111;-75
2023/12/17 10:51:42;;;;;;;9.50;5.15;;;9.60;99.90;;;;;;5036589;28;20049;-74
2023/12/17 10:54:11;;;;;;;11.32;6.00;;;9.60;99.90;;;;;;5052787;28;20070;-72
2023/12/17 10:56:48;;;;;;;13.48;6.95;;;9.60;99.90;;;;;;5061208;28;20755;-73
2023/12/17 10:59:18;;;;;;;16.90;6.78;;;9.60;99.90;;;;;;5053118;28;20434;-73
2023/12/17 11:01:48;;;;;;;18.92;6.38;;;9.70;99.90;;;;;;5056943;28;20044;-74
2023/12/17 11:04:14;;;;;;;16.52;7.45;;;9.70;99.90;;;;;;5053121;28;20075;-77
2023/12/17 11:06:40;;;;;;;13.93;5.72;;;9.70;99.90;;;;;;5048747;28;20051;-72
2023/12/17 11:09:05;;;;;;;11.82;6.18;;;9.70;99.90;;;;;;5061597;28;20037;-74
2023/12/17 11:11:32;;;;;;;15.98;6.38;;;9.70;99.90;;;;;;5052514;28;20428;-73
2023/12/17 11:13:59;;;;;;;16.17;5.85;;;9.70;99.90;;;;;;5052449;28;20048;-76
2023/12/17 11:16:26;;;;;;;13.55;6.03;;;9.60;99.90;;;;;;5052217;28;20041;-73
2023/12/17 11:18:53;;;;;;;15.73;5.85;;;9.60;99.90;;;;;;5031986;28;20040;-73
2023/12/17 11:21:19;;;;;;;14.00;5.40;;;9.60;99.90;;;;;;5048848;28;20358;-74
2023/12/17 11:23:49;;;;;;;12.80;5.63;;;9.60;99.90;;;;;;5043835;28;20098;-75
2023/12/17 11:26:17;;;;;;;13.35;5.68;;;9.60;99.90;;;;;;5044239;28;20040;-72
2023/12/17 11:28:44;;;;;;;12.63;6.47;;;9.60;99.90;;;;;;5052815;28;20400;-74
2023/12/17 11:31:12;;;;;;;11.88;5.65;;;9.60;99.90;;;;;;5056863;28;20033;-73
2023/12/17 11:33:38;;;;;;;10.48;5.43;;;9.50;99.90;;;;;;5052338;28;20048;-73
2023/12/17 11:36:08;;;;;;;16.02;7.40;;;9.60;99.90;;;;;;5054588;28;20044;-75
2023/12/17 11:38:37;;;;;;;11.85;6.43;;;9.60;99.90;;;;;;5047282;28;20060;-74
2023/12/17 11:41:04;;;;;;;13.57;6.10;;;9.60;99.90;;;;;;5049004;28;20044;-75
2023/12/17 11:43:30;;;;;;;16.10;6.25;;;9.60;99.90;;;;;;5051502;28;20057;-74
2023/12/17 11:45:56;;;;;;;14.63;6.35;;;9.50;99.90;;;;;;5052491;28;20041;-73
2023/12/17 11:48:22;;;;;;;10.73;5.00;;;9.50;99.90;;;;;;5053012;28;20037;-75
2023/12/17 11:50:56;;;;;;;13.98;5.65;;;9.50;99.90;;;;;;5052402;28;20427;-72
2023/12/17 11:53:27;;;;;;;11.77;5.75;;;9.50;99.90;;;;;;5045366;28;20040;-72
2023/12/17 11:55:59;;;;;;;18.50;7.35;;;9.50;99.90;;;;;;5049282;28;20045;-72
2023/12/17 11:58:25;;;;;;;13.10;5.85;;;9.50;99.90;;;;;;5053155;28;20040;-73
2023/12/17 12:01:09;;;;;;;17.05;6.80;;;9.50;99.90;;;;;;5044982;28;20076;-72
2023/12/17 12:03:41;;;;;;;17.70;7.43;;;9.40;99.90;;;;;;5070322;28;20053;-72
2023/12/17 12:06:13;;;;;;;14.30;7.18;;;9.50;99.90;;;;;;5074309;28;20037;-72
2023/12/17 12:08:50;;;;;;;18.48;8.15;;;9.40;99.90;;;;;;5052159;28;20465;-73
2023/12/17 12:11:19;;;;;;;18.88;6.28;;;9.40;99.90;;;;;;5032414;28;20037;-73
2023/12/17 12:13:48;;;;;;;11.87;5.50;;;9.50;99.90;;;;;;5055501;28;20704;-74
2023/12/17 12:16:15;;;;;;;17.95;7.40;;;9.60;99.90;;;;;;5051784;28;20036;-73
2023/12/17 12:18:41;;;;;;;16.45;7.57;;;9.60;99.90;;;;;;5051870;28;20093;-74
2023/12/17 12:21:24;;;;;;;9.48;5.65;;;9.60;99.90;;;;;;5051375;28;20044;-76
2023/12/17 12:23:54;;;;;;;16.23;5.65;;;9.60;99.90;;;;;;5051663;28;20047;-74
2023/12/17 12:26:22;;;;;;;12.45;6.82;;;9.60;99.90;;;;;;5060430;28;20037;-73
2023/12/17 12:28:59;;;;;;;14.48;7.15;;;9.70;99.90;;;;;;5035520;28;20078;-73
2023/12/17 12:31:29;;;;;;;13.25;6.53;;;9.70;99.90;;;;;;5070163;28;20033;-72
2023/12/17 12:34:21;;;;;;;12.93;6.03;;;9.80;99.90;;;;;;5039246;28;20047;-74
2023/12/17 12:36:48;;;;;;;12.40;6.53;;;9.90;99.90;;;;;;5059255;28;20072;-74
2023/12/17 12:39:16;;;;;;;13.23;5.78;;;9.90;99.90;;;;;;5037813;28;20407;-74
2023/12/17 12:41:47;;;;;;;14.98;5.55;;;9.90;99.90;;;;;;5009298;28;20061;-73
2023/12/17 12:44:16;;;;;;;14.43;6.78;;;10.00;99.90;;;;;;5032224;28;20041;-73
2023/12/17 12:46:43;;;;;;;12.13;5.77;;;10.00;99.90;;;;;;5031736;28;20056;-73
2023/12/17 12:49:10;;;;;;;13.93;5.55;;;10.00;99.90;;;;;;5030149;28;20474;-74
2023/12/17 12:51:37;;;;;;;10.15;5.30;;;10.00;99.90;;;;;;5029054;28;20094;-74